Time;durP1;ratioP1;P1;durP2;ratioP2;P2;SDS_P1;SDS_P2;PMS_P1;PMS_P2;Temp;Humidity;BMP_temperature;BMP_pressure;BME280_temperature;BME280_humidity;BME280_pressure;Samples;Min_cycle;Max_cycle;Signal;HPM_P1;HPM_P2
2022/05/29 00:01:49;;;;;;;10.07;3.70;;;9.90;76.80;;;;;;5000946;28;20030;-75
2022/05/29 00:04:15;;;;;;;9.57;3.03;;;9.80;76.80;;;;;;4996076;28;20037;-74
2022/05/29 00:06:43;;;;;;;10.13;3.17;;;9.80;76.90;;;;;;5001074;28;20381;-73
2022/05/29 00:09:13;;;;;;;9.77;4.20;;;9.90;77.00;;;;;;4992071;28;20132;-74
2022/05/29 00:11:39;;;;;;;9.85;3.78;;;9.80;77.00;;;;;;5001428;28;20054;-73
2022/05/29 00:14:05;;;;;;;10.38;3.42;;;9.70;76.80;;;;;;4999032;28;20066;-75
2022/05/29 00:16:31;;;;;;;10.07;3.40;;;9.70;76.80;;;;;;5002048;28;20107;-74
2022/05/29 00:18:57;;;;;;;12.48;3.95;;;9.80;76.90;;;;;;4997109;28;20474;-74
2022/05/29 00:21:23;;;;;;;10.13;4.07;;;9.70;77.10;;;;;;5003879;28;20465;-74
2022/05/29 00:23:53;;;;;;;11.52;4.63;;;9.70;77.20;;;;;;5012440;28;20045;-74
2022/05/29 00:26:20;;;;;;;9.93;4.25;;;9.70;77.30;;;;;;5006242;28;20033;-73
2022/05/29 00:28:46;;;;;;;12.48;4.30;;;9.80;77.30;;;;;;5004520;28;20040;-75
2022/05/29 00:31:13;;;;;;;9.88;3.85;;;9.80;77.40;;;;;;4996265;28;20104;-74
2022/05/29 00:33:39;;;;;;;9.18;4.55;;;9.90;77.30;;;;;;4996911;28;20048;-73
2022/05/29 00:36:07;;;;;;;10.00;4.35;;;9.90;77.20;;;;;;5002869;28;20041;-75
2022/05/29 00:38:38;;;;;;;9.95;4.47;;;9.90;77.00;;;;;;5004191;28;20482;-74
2022/05/29 00:41:17;;;;;;;13.43;4.45;;;10.10;77.00;;;;;;4998124;28;20486;-75
2022/05/29 00:43:46;;;;;;;11.50;4.57;;;10.10;77.00;;;;;;4999605;28;20038;-75
2022/05/29 00:46:12;;;;;;;9.38;4.43;;;10.10;77.10;;;;;;4997832;28;20026;-74
2022/05/29 00:48:38;;;;;;;11.35;4.43;;;10.10;77.00;;;;;;4992686;28;20030;-73
2022/05/29 00:51:11;;;;;;;8.52;4.05;;;10.10;77.10;;;;;;4999459;28;20390;-74
2022/05/29 00:53:37;;;;;;;8.93;4.20;;;10.20;77.20;;;;;;5000097;28;20058;-74
2022/05/29 00:56:08;;;;;;;8.98;4.55;;;10.10;77.10;;;;;;5008973;28;20031;-75
2022/05/29 00:58:34;;;;;;;10.88;4.10;;;10.10;77.00;;;;;;5002126;28;20030;-73
2022/05/29 01:01:02;;;;;;;10.00;4.55;;;10.20;77.20;;;;;;5001625;28;20049;-75
2022/05/29 01:03:27;;;;;;;8.82;4.72;;;10.20;77.40;;;;;;5006192;28;20038;-74
2022/05/29 01:05:53;;;;;;;9.35;4.82;;;10.20;77.50;;;;;;5004649;28;20030;-73
2022/05/29 01:08:27;;;;;;;13.43;4.88;;;10.30;77.80;;;;;;5002794;28;20044;-74
2022/05/29 01:11:10;;;;;;;11.05;5.05;;;10.20;78.10;;;;;;5009349;28;20038;-75
2022/05/29 01:13:52;;;;;;;9.30;3.90;;;10.20;78.40;;;;;;4997907;28;20210;-73
2022/05/29 01:16:29;;;;;;;10.45;4.57;;;10.20;78.60;;;;;;5002864;28;20037;-74
2022/05/29 01:19:12;;;;;;;11.88;4.35;;;10.20;78.80;;;;;;5004689;28;20030;-75
2022/05/29 01:21:44;;;;;;;11.13;4.43;;;10.10;79.20;;;;;;5009717;28;20148;-75
2022/05/29 01:24:16;;;;;;;8.98;4.68;;;10.20;79.40;;;;;;5005119;28;20041;-74
2022/05/29 01:27:03;;;;;;;10.65;4.78;;;10.10;79.30;;;;;;4999828;28;20141;-75
2022/05/29 01:29:48;;;;;;;8.18;3.97;;;10.20;79.50;;;;;;5001018;28;20038;-76
2022/05/29 01:32:26;;;;;;;9.80;4.22;;;10.20;79.80;;;;;;5005957;28;20060;-74
2022/05/29 01:34:55;;;;;;;8.85;4.43;;;10.20;79.70;;;;;;4999983;28;20054;-73
2022/05/29 01:37:31;;;;;;;11.30;4.25;;;10.20;79.90;;;;;;5001596;28;20139;-72
2022/05/29 01:40:09;;;;;;;8.60;4.13;;;10.20;80.00;;;;;;5000571;28;20116;-74
2022/05/29 01:43:05;;;;;;;9.50;3.35;;;10.20;79.90;;;;;;5000247;28;20038;-74
2022/05/29 01:45:55;;;;;;;9.15;3.60;;;10.20;79.80;;;;;;5004863;28;20042;-74
2022/05/29 01:48:33;;;;;;;10.20;3.63;;;10.10;80.10;;;;;;5002063;28;20077;-76
2022/05/29 01:51:06;;;;;;;9.02;3.40;;;10.20;80.10;;;;;;4998868;28;20538;-74
2022/05/29 01:53:44;;;;;;;7.55;3.65;;;10.20;80.00;;;;;;5001798;28;20054;-75
2022/05/29 01:56:28;;;;;;;7.75;2.90;;;10.20;79.90;;;;;;5001921;28;20137;-76
2022/05/29 01:59:14;;;;;;;8.50;3.17;;;10.20;80.20;;;;;;5001623;28;20037;-73
2022/05/29 02:01:46;;;;;;;7.63;3.38;;;10.30;80.20;;;;;;5004569;28;20042;-75
2022/05/29 02:04:17;;;;;;;6.32;2.83;;;10.30;80.20;;;;;;4997699;28;20042;-74
2022/05/29 02:09:36;;;;;;;7.28;2.65;;;10.40;80.10;;;;;;5004320;28;20488;-75
2022/05/29 02:12:04;;;;;;;6.63;3.17;;;10.40;80.00;;;;;;5000415;28;20080;-75
2022/05/29 02:14:35;;;;;;;6.97;3.65;;;10.50;80.50;;;;;;5011185;28;20040;-73
2022/05/29 02:17:17;;;;;;;5.65;2.88;;;10.60;80.70;;;;;;5005826;28;20037;-74
2022/05/29 02:19:50;;;;;;;6.38;3.10;;;10.60;80.80;;;;;;5000201;28;20145;-73
2022/05/29 02:22:27;;;;;;;6.47;3.22;;;10.60;80.80;;;;;;4993958;28;20546;-74
2022/05/29 02:25:15;;;;;;;6.55;3.20;;;10.60;80.70;;;;;;5001990;28;20046;-75
2022/05/29 02:27:50;;;;;;;7.18;3.30;;;10.60;80.80;;;;;;5003113;28;20732;-74
2022/05/29 02:30:16;;;;;;;7.70;2.85;;;10.60;80.60;;;;;;5012765;28;20495;-75
2022/05/29 02:33:07;;;;;;;7.47;3.20;;;10.50;80.30;;;;;;4998391;28;20056;-74
2022/05/29 02:36:19;;;;;;;7.85;3.08;;;10.50;80.70;;;;;;4999963;28;20033;-76
2022/05/29 02:39:14;;;;;;;10.45;3.33;;;10.50;81.10;;;;;;4998854;28;20103;-73
2022/05/29 02:41:47;;;;;;;8.45;3.33;;;10.50;81.00;;;;;;4998856;28;20482;-72
2022/05/29 02:44:43;;;;;;;10.45;4.13;;;10.50;80.80;;;;;;5006304;28;20066;-75
2022/05/29 02:47:31;;;;;;;6.78;2.65;;;10.50;81.00;;;;;;5000735;28;20033;-73
2022/05/29 02:50:18;;;;;;;10.00;3.35;;;10.40;81.00;;;;;;4996667;28;20038;-76
2022/05/29 02:52:44;;;;;;;7.05;2.85;;;10.30;81.10;;;;;;4998788;28;20092;-74
2022/05/29 02:55:11;;;;;;;5.35;2.58;;;10.30;80.90;;;;;;5002575;28;20042;-74
2022/05/29 02:57:38;;;;;;;7.93;2.65;;;10.30;81.00;;;;;;5002512;28;20638;-74
2022/05/29 03:00:11;;;;;;;7.47;2.65;;;10.30;81.00;;;;;;5004496;28;20038;-75
2022/05/29 03:02:58;;;;;;;5.55;2.65;;;10.30;80.90;;;;;;4999506;28;20038;-74
2022/05/29 03:06:07;;;;;;;6.93;2.42;;;10.30;80.60;;;;;;5001058;28;20045;-73
2022/05/29 03:09:13;;;;;;;7.57;2.60;;;10.30;80.10;;;;;;4983315;28;20136;-75
2022/05/29 03:11:46;;;;;;;6.75;2.22;;;10.30;79.80;;;;;;4999597;28;20081;-75
2022/05/29 03:14:21;;;;;;;5.10;2.08;;;10.20;79.70;;;;;;5007662;28;20029;-75
2022/05/29 03:17:14;;;;;;;7.20;2.50;;;10.30;79.70;;;;;;5010032;28;20030;-74
2022/05/29 03:19:52;;;;;;;5.50;2.47;;;10.20;79.80;;;;;;5027483;28;20633;-74
2022/05/29 03:22:33;;;;;;;9.80;2.60;;;10.10;80.10;;;;;;5000245;28;20061;-75
2022/05/29 03:25:22;;;;;;;8.70;3.00;;;10.10;80.50;;;;;;5002415;28;20153;-75
2022/05/29 03:27:50;;;;;;;8.20;2.70;;;10.10;80.80;;;;;;5002418;28;20065;-73
2022/05/29 03:30:20;;;;;;;6.68;2.53;;;10.10;81.10;;;;;;5000938;28;20050;-73
2022/05/29 03:32:48;;;;;;;7.93;3.00;;;10.00;81.20;;;;;;5007881;28;21051;-75
2022/05/29 03:35:46;;;;;;;6.07;2.92;;;9.90;81.50;;;;;;5003395;28;20041;-73
2022/05/29 03:38:12;;;;;;;6.65;2.67;;;9.90;81.80;;;;;;4999027;28;20058;-74
2022/05/29 03:40:39;;;;;;;6.13;3.00;;;9.90;82.00;;;;;;5000678;28;20462;-73
2022/05/29 03:43:05;;;;;;;9.50;3.88;;;9.80;82.30;;;;;;4999294;28;20470;-74
2022/05/29 03:45:31;;;;;;;7.18;3.50;;;9.70;82.40;;;;;;5003053;28;20084;-74
2022/05/29 03:47:57;;;;;;;8.55;3.30;;;9.70;82.60;;;;;;4996126;28;20030;-76
2022/05/29 03:50:24;;;;;;;7.70;3.03;;;9.60;82.80;;;;;;4998070;28;20041;-72
2022/05/29 03:52:50;;;;;;;8.05;2.90;;;9.70;82.80;;;;;;5009458;28;20040;-73
2022/05/29 03:55:20;;;;;;;7.32;3.10;;;9.70;82.80;;;;;;5003362;28;20034;-74
2022/05/29 03:57:46;;;;;;;8.95;3.15;;;9.70;83.00;;;;;;5010196;28;20041;-75
2022/05/29 04:00:13;;;;;;;7.55;3.15;;;9.70;83.00;;;;;;5002193;28;20037;-74
2022/05/29 04:02:40;;;;;;;7.95;3.00;;;9.70;82.90;;;;;;5007672;28;20036;-75
2022/05/29 04:05:09;;;;;;;10.43;3.50;;;9.70;82.90;;;;;;5006069;28;20046;-75
2022/05/29 04:13:04;;;;;;;11.63;4.45;;;9.80;83.20;;;;;;4997462;28;20376;-75
2022/05/29 04:15:30;;;;;;;8.07;4.30;;;9.80;83.30;;;;;;4997763;28;20029;-76
2022/05/29 04:17:56;;;;;;;8.93;4.07;;;9.80;83.40;;;;;;4999410;28;20521;-74
2022/05/29 04:20:22;;;;;;;9.95;4.13;;;9.80;83.50;;;;;;5023790;28;20477;-73
2022/05/29 04:22:47;;;;;;;9.57;4.50;;;9.80;83.40;;;;;;4999356;28;20045;-76
2022/05/29 04:25:13;;;;;;;7.32;4.03;;;9.80;83.40;;;;;;5001297;28;20068;-76
2022/05/29 04:27:39;;;;;;;10.32;4.53;;;9.80;83.50;;;;;;4998250;28;20136;-74
2022/05/29 04:30:05;;;;;;;11.30;3.85;;;9.80;83.50;;;;;;4998170;28;20042;-76
2022/05/29 04:35:16;;;;;;;9.80;4.60;;;9.90;83.50;;;;;;4997705;28;20049;-74
2022/05/29 04:37:42;;;;;;;11.13;4.43;;;9.90;83.40;;;;;;5008647;28;20031;-75
2022/05/29 04:40:08;;;;;;;8.75;4.22;;;10.00;83.50;;;;;;5000384;28;20042;-75
2022/05/29 04:42:35;;;;;;;9.32;4.75;;;10.10;83.40;;;;;;4997204;28;20175;-76
2022/05/29 04:45:00;;;;;;;11.25;5.00;;;10.10;83.60;;;;;;4996728;28;20048;-76
2022/05/29 04:47:26;;;;;;;10.20;4.50;;;10.20;83.10;;;;;;4995861;28;20038;-74
2022/05/29 04:49:52;;;;;;;7.50;4.25;;;10.20;83.10;;;;;;4996709;28;20046;-75
2022/05/29 04:52:17;;;;;;;11.85;5.03;;;10.40;83.40;;;;;;4996943;28;20042;-75
2022/05/29 04:54:43;;;;;;;8.10;4.35;;;10.60;82.80;;;;;;4998157;28;20045;-73
2022/05/29 04:57:10;;;;;;;7.65;4.25;;;10.60;82.80;;;;;;4993603;28;20549;-76
2022/05/29 04:59:36;;;;;;;10.68;4.68;;;10.80;82.40;;;;;;4994437;28;20038;-72
2022/05/29 05:02:03;;;;;;;10.85;4.65;;;11.00;82.00;;;;;;4996352;28;20125;-72
2022/05/29 05:04:29;;;;;;;9.25;4.38;;;11.10;81.10;;;;;;4996750;28;20056;-73
2022/05/29 05:06:58;;;;;;;11.25;4.70;;;11.10;81.40;;;;;;4999426;28;20808;-73
2022/05/29 05:09:28;;;;;;;9.93;4.50;;;11.30;81.40;;;;;;4996192;28;20034;-74
2022/05/29 05:11:55;;;;;;;7.95;4.47;;;11.40;80.20;;;;;;5001506;28;20073;-74
2022/05/29 05:14:23;;;;;;;9.88;4.80;;;11.40;80.00;;;;;;4994903;28;20046;-74
2022/05/29 05:16:49;;;;;;;10.23;4.93;;;11.50;79.50;;;;;;5002463;28;20045;-75
2022/05/29 05:19:15;;;;;;;13.18;5.60;;;11.60;79.30;;;;;;4998776;28;20042;-74
2022/05/29 05:21:42;;;;;;;9.18;4.82;;;11.60;78.90;;;;;;4997430;28;20034;-73
2022/05/29 05:24:08;;;;;;;12.23;4.43;;;11.60;78.90;;;;;;4996784;28;20081;-73
2022/05/29 05:26:35;;;;;;;11.63;5.03;;;11.60;78.50;;;;;;5004782;28;20732;-72
2022/05/29 05:29:01;;;;;;;8.77;4.45;;;11.50;78.90;;;;;;4999152;28;20034;-73
2022/05/29 05:31:27;;;;;;;8.63;4.53;;;11.50;80.30;;;;;;4993406;28;20123;-74
2022/05/29 05:33:53;;;;;;;7.97;4.07;;;11.50;80.10;;;;;;4995288;28;20042;-73
2022/05/29 05:36:19;;;;;;;10.52;3.85;;;11.60;80.10;;;;;;4996800;28;20042;-73
2022/05/29 05:38:46;;;;;;;8.35;3.50;;;12.00;78.80;;;;;;5003915;28;20111;-75
2022/05/29 05:41:13;;;;;;;9.25;3.67;;;13.10;76.70;;;;;;5011549;28;20042;-75
2022/05/29 05:43:39;;;;;;;7.22;2.90;;;14.80;70.90;;;;;;4998860;28;20045;-73
2022/05/29 05:46:10;;;;;;;7.47;3.17;;;15.10;65.00;;;;;;5003306;28;21503;-75
2022/05/29 05:48:37;;;;;;;8.75;3.50;;;14.60;66.60;;;;;;5001928;28;20033;-75
2022/05/29 05:51:03;;;;;;;7.20;3.13;;;13.80;68.50;;;;;;5001597;28;20049;-75
2022/05/29 05:53:29;;;;;;;10.52;3.88;;;13.10;70.30;;;;;;4998792;28;20044;-73
2022/05/29 05:55:54;;;;;;;7.55;3.03;;;12.90;72.30;;;;;;5002133;28;20034;-75
2022/05/29 05:58:20;;;;;;;7.22;2.75;;;12.80;72.70;;;;;;4999621;28;20033;-73
2022/05/29 06:00:48;;;;;;;9.50;2.95;;;12.70;72.20;;;;;;5000840;28;20045;-74
2022/05/29 06:03:14;;;;;;;8.13;3.17;;;12.70;70.70;;;;;;5002055;28;20030;-75
2022/05/29 06:05:40;;;;;;;7.53;2.70;;;12.90;72.00;;;;;;5001279;28;20042;-73
2022/05/29 06:08:06;;;;;;;8.90;2.95;;;13.00;71.10;;;;;;5003709;28;20389;-75
2022/05/29 06:10:32;;;;;;;7.10;2.80;;;12.90;70.00;;;;;;4995914;28;20077;-74
2022/05/29 06:13:02;;;;;;;8.50;2.97;;;12.80;71.30;;;;;;4998687;28;20485;-73
2022/05/29 06:15:28;;;;;;;8.18;3.03;;;12.70;72.10;;;;;;4998305;28;20034;-73
2022/05/29 06:17:54;;;;;;;9.38;2.45;;;12.70;72.00;;;;;;5001292;28;20037;-74
2022/05/29 06:20:20;;;;;;;8.27;2.90;;;12.60;72.00;;;;;;5001320;28;20045;-75
2022/05/29 06:22:46;;;;;;;9.27;2.53;;;12.60;72.10;;;;;;5003588;28;20531;-73
2022/05/29 06:25:12;;;;;;;9.32;3.13;;;12.60;72.60;;;;;;5007000;28;20056;-74
2022/05/29 06:27:40;;;;;;;5.75;2.05;;;12.60;71.90;;;;;;4998942;28;20042;-74
2022/05/29 06:30:08;;;;;;;7.13;2.72;;;12.60;71.80;;;;;;5000591;28;20048;-73
2022/05/29 06:32:35;;;;;;;6.60;2.65;;;12.70;72.20;;;;;;5000298;28;20038;-74
2022/05/29 06:35:02;;;;;;;9.18;2.83;;;12.80;72.10;;;;;;5013311;28;20168;-74
2022/05/29 06:37:29;;;;;;;8.73;2.92;;;12.70;72.30;;;;;;5003503;28;20468;-74
2022/05/29 06:39:55;;;;;;;10.15;3.15;;;12.80;71.70;;;;;;4999574;28;20454;-76
2022/05/29 06:42:21;;;;;;;7.28;2.78;;;13.00;71.80;;;;;;4997721;28;20324;-75
2022/05/29 06:44:47;;;;;;;7.50;2.80;;;13.00;69.40;;;;;;5005870;28;20044;-72
2022/05/29 06:47:14;;;;;;;9.73;3.15;;;13.10;70.00;;;;;;4998899;28;20524;-74
2022/05/29 06:49:40;;;;;;;10.23;3.33;;;13.30;70.00;;;;;;5001428;28;20046;-75
2022/05/29 06:52:08;;;;;;;8.90;2.92;;;13.10;70.10;;;;;;4993385;28;20054;-74
2022/05/29 06:54:35;;;;;;;8.50;2.80;;;13.20;70.00;;;;;;4995279;28;20091;-72
2022/05/29 06:57:01;;;;;;;8.40;3.50;;;13.10;70.00;;;;;;4993336;28;20548;-78
2022/05/29 06:59:27;;;;;;;12.57;3.50;;;13.10;69.80;;;;;;5022338;28;20547;-72
2022/05/29 07:07:23;;;;;;;12.43;3.40;;;13.60;69.40;;;;;;4996872;28;20416;-74
2022/05/29 07:09:49;;;;;;;10.80;3.90;;;13.80;69.20;;;;;;4992336;28;20042;-75
2022/05/29 07:12:27;;;;;;;12.20;3.70;;;13.60;69.70;;;;;;4994290;28;20042;-72
2022/05/29 07:15:03;;;;;;;6.88;2.67;;;14.00;71.10;;;;;;4996298;28;20033;-74
2022/05/29 07:17:29;;;;;;;10.55;2.95;;;14.10;67.40;;;;;;4996271;28;20033;-74
2022/05/29 07:19:55;;;;;;;8.18;2.55;;;14.00;65.80;;;;;;5001481;28;20531;-74
2022/05/29 07:22:21;;;;;;;8.85;2.50;;;14.40;66.30;;;;;;4996701;28;20044;-74
2022/05/29 07:24:47;;;;;;;7.43;2.60;;;14.60;64.20;;;;;;5009907;28;20076;-74
2022/05/29 07:27:13;;;;;;;7.72;2.65;;;14.70;63.80;;;;;;4998605;28;20046;-74
2022/05/29 07:29:39;;;;;;;6.35;2.78;;;14.80;62.80;;;;;;5000853;28;20378;-74
2022/05/29 07:32:06;;;;;;;4.65;2.20;;;14.70;61.90;;;;;;4994864;28;20077;-75
2022/05/29 07:34:31;;;;;;;5.85;2.50;;;14.50;62.80;;;;;;4996604;28;20429;-74
2022/05/29 07:37:09;;;;;;;5.05;2.15;;;14.60;63.70;;;;;;5002027;28;20030;-74
2022/05/29 07:39:37;;;;;;;4.13;1.95;;;14.70;64.30;;;;;;4996546;28;20127;-73
2022/05/29 07:44:50;;;;;;;6.85;2.15;;;14.50;65.40;;;;;;4995843;28;20041;-72
2022/05/29 07:47:15;;;;;;;5.70;1.83;;;14.10;63.20;;;;;;5001710;28;20046;-73
2022/05/29 07:49:42;;;;;;;6.22;1.98;;;13.70;65.10;;;;;;4982410;28;20459;-74
2022/05/29 07:52:07;;;;;;;8.63;3.03;;;13.70;66.30;;;;;;4982898;28;20569;-71
2022/05/29 07:54:33;;;;;;;5.53;2.45;;;13.70;66.70;;;;;;4980830;28;20042;-72
2022/05/29 07:56:58;;;;;;;6.88;2.78;;;13.90;67.00;;;;;;4979946;28;20034;-72
2022/05/29 07:59:24;;;;;;;7.88;2.40;;;14.10;67.10;;;;;;4977849;28;20046;-73
2022/05/29 08:01:50;;;;;;;7.80;2.17;;;14.00;67.40;;;;;;4974474;28;20058;-73
2022/05/29 08:04:16;;;;;;;8.13;2.92;;;13.60;68.00;;;;;;4982350;28;20058;-72
2022/05/29 08:06:42;;;;;;;4.88;1.90;;;13.60;69.20;;;;;;4977822;28;20432;-72
2022/05/29 08:09:09;;;;;;;6.07;2.30;;;13.20;70.30;;;;;;4974386;28;20393;-73
2022/05/29 08:11:34;;;;;;;7.32;2.33;;;12.90;71.10;;;;;;4978387;28;20045;-72
2022/05/29 08:14:01;;;;;;;7.03;2.15;;;12.90;71.70;;;;;;4974654;28;20038;-72
2022/05/29 08:16:28;;;;;;;5.13;2.15;;;12.80;71.90;;;;;;4974364;28;20142;-71
2022/05/29 08:18:53;;;;;;;8.13;2.30;;;12.80;72.10;;;;;;4974336;28;20331;-74
2022/05/29 08:21:19;;;;;;;5.00;2.22;;;12.70;73.30;;;;;;4976040;28;20086;-70
2022/05/29 08:30:37;;;;;;;8.32;2.22;;;12.60;74.20;;;;;;4971760;28;20050;-70
2022/05/29 08:32:00;;;;;;;3.42;1.88;;;12.70;74.90;;;;;;4981406;28;20572;-72
2022/05/29 08:34:26;;;;;;;2.92;1.70;;;12.80;74.80;;;;;;4965106;28;20118;-73
2022/05/29 08:36:53;;;;;;;6.10;1.90;;;13.00;74.30;;;;;;4969780;28;20034;-76
2022/05/29 08:39:19;;;;;;;4.47;1.80;;;13.30;73.70;;;;;;4961802;28;20117;-75
2022/05/29 08:41:50;;;;;;;6.50;2.13;;;13.30;72.00;;;;;;4968340;28;20461;-75
2022/05/29 08:44:29;;;;;;;3.67;2.00;;;13.60;72.10;;;;;;4968508;28;20039;-74
2022/05/29 08:47:00;;;;;;;4.28;1.65;;;14.10;70.70;;;;;;4971849;28;20068;-73
2022/05/29 08:49:31;;;;;;;5.57;1.67;;;14.70;71.50;;;;;;4977635;28;20039;-73
2022/05/29 08:52:04;;;;;;;2.25;1.30;;;14.80;66.20;;;;;;4970934;28;20544;-74
2022/05/29 08:54:59;;;;;;;3.67;1.30;;;15.00;65.90;;;;;;4965446;28;20058;-71
2022/05/29 08:57:40;;;;;;;3.58;1.40;;;14.90;63.10;;;;;;4976173;28;20098;-71
2022/05/29 09:00:37;;;;;;;3.35;1.17;;;14.90;63.30;;;;;;4976786;28;20490;-74
2022/05/29 09:03:40;;;;;;;2.80;1.30;;;14.60;60.20;;;;;;4969914;28;20050;-73
2022/05/29 09:06:17;;;;;;;3.72;1.52;;;14.60;63.80;;;;;;4971672;28;20069;-72
2022/05/29 09:09:18;;;;;;;9.32;2.25;;;14.30;64.50;;;;;;4973957;28;20104;-75
2022/05/29 09:11:51;;;;;;;1.75;1.10;;;13.70;65.30;;;;;;4976124;28;20062;-73
2022/05/29 09:14:35;;;;;;;5.30;1.33;;;13.60;66.00;;;;;;4966916;28;20106;-72
2022/05/29 09:17:06;;;;;;;4.85;1.48;;;13.50;65.50;;;;;;4978355;28;20105;-76
2022/05/29 09:19:49;;;;;;;4.45;1.40;;;13.50;65.10;;;;;;4975958;28;20125;-74
2022/05/29 09:22:29;;;;;;;1.60;1.20;;;13.60;64.10;;;;;;4977290;28;20054;-73
2022/05/29 09:25:09;;;;;;;4.25;1.25;;;13.70;65.00;;;;;;4972770;28;20692;-72
2022/05/29 09:27:37;;;;;;;2.05;1.17;;;13.70;66.70;;;;;;4975027;28;20038;-73
2022/05/29 09:30:07;;;;;;;2.75;1.10;;;13.90;66.00;;;;;;4972107;28;20117;-74
2022/05/29 09:32:35;;;;;;;3.97;1.38;;;14.00;64.10;;;;;;4979882;28;20470;-72
2022/05/29 09:35:07;;;;;;;2.15;1.10;;;14.10;63.10;;;;;;4973931;28;20049;-75
2022/05/29 09:37:46;;;;;;;3.08;1.17;;;14.30;62.80;;;;;;4973675;28;20050;-73
2022/05/29 09:40:20;;;;;;;6.25;1.40;;;14.10;62.50;;;;;;4983277;28;20054;-73
2022/05/29 09:42:48;;;;;;;1.65;1.33;;;14.30;62.90;;;;;;4983385;28;20042;-76
2022/05/29 09:45:20;;;;;;;3.00;1.35;;;14.60;61.70;;;;;;4974664;28;20075;-75
2022/05/29 09:50:51;;;;;;;3.27;1.20;;;15.30;62.10;;;;;;4972610;28;20076;-72
2022/05/29 09:53:42;;;;;;;4.22;1.20;;;15.60;59.80;;;;;;4972020;28;20042;-72
2022/05/29 09:56:09;;;;;;;3.70;1.30;;;16.10;59.20;;;;;;5013726;28;20187;-72
2022/05/29 09:58:43;;;;;;;3.42;1.20;;;15.80;57.30;;;;;;5010896;28;20037;-73
2022/05/29 10:01:09;;;;;;;;;;;15.50;57.80;;;;;;4989916;28;20082;-73
2022/05/29 10:03:56;;;;;;;3.80;1.20;;;15.40;56.30;;;;;;4996127;28;19993;-74
2022/05/29 10:06:22;;;;;;;1.92;1.10;;;15.50;56.20;;;;;;4996153;28;20049;-74
2022/05/29 10:08:49;;;;;;;5.50;1.58;;;15.80;54.10;;;;;;4997282;28;20092;-71
2022/05/29 10:11:35;;;;;;;4.70;1.40;;;16.40;54.90;;;;;;4990379;28;20031;-74
2022/05/29 10:14:45;;;;;;;5.25;1.55;;;16.60;52.60;;;;;;4993104;28;20081;-73
2022/05/29 10:17:32;;;;;;;5.72;1.60;;;16.30;53.80;;;;;;4987080;28;20729;-72
2022/05/29 10:19:58;;;;;;;3.08;1.35;;;15.50;58.60;;;;;;4993939;28;20066;-73
2022/05/29 10:22:27;;;;;;;5.95;1.80;;;14.70;61.60;;;;;;4991544;28;20117;-73
2022/05/29 10:24:54;;;;;;;6.28;1.80;;;14.50;66.00;;;;;;4991541;28;20046;-73
2022/05/29 10:27:26;;;;;;;4.82;1.80;;;14.10;68.70;;;;;;4996013;28;20176;-71
2022/05/29 10:29:56;;;;;;;5.18;2.13;;;13.90;70.80;;;;;;5000256;28;20470;-76
2022/05/29 10:32:28;;;;;;;5.50;2.05;;;13.60;72.20;;;;;;4998791;28;20046;-72
2022/05/29 10:35:08;;;;;;;6.78;2.10;;;13.50;70.50;;;;;;5000428;28;20471;-74
2022/05/29 10:37:38;;;;;;;5.38;2.00;;;13.60;72.80;;;;;;4993868;28;20038;-73
2022/05/29 10:40:21;;;;;;;5.30;2.03;;;14.10;72.10;;;;;;4995970;28;20050;-74
2022/05/29 10:42:52;;;;;;;5.82;2.40;;;14.60;70.80;;;;;;4998983;28;20222;-73
2022/05/29 10:45:24;;;;;;;5.22;2.08;;;15.10;71.30;;;;;;5000581;28;20748;-73
2022/05/29 10:48:13;;;;;;;5.97;1.90;;;15.40;66.80;;;;;;5001338;28;20060;-73
2022/05/29 10:50:48;;;;;;;6.43;1.98;;;15.90;68.20;;;;;;5009995;28;20050;-74
2022/05/29 10:53:43;;;;;;;6.20;2.30;;;16.10;65.00;;;;;;4996228;28;20042;-73
2022/05/29 10:56:31;;;;;;;6.32;2.03;;;16.00;63.70;;;;;;4995255;28;20116;-71
2022/05/29 10:59:06;;;;;;;7.90;3.10;;;15.90;63.40;;;;;;4993886;28;20035;-74
2022/05/29 11:05:02;;;;;;;4.40;2.45;;;16.10;64.20;;;;;;4989059;28;20386;-71
2022/05/29 11:07:34;;;;;;;4.85;2.40;;;16.10;63.40;;;;;;4999476;28;20042;-75
2022/05/29 11:10:12;;;;;;;5.88;2.00;;;16.00;61.30;;;;;;4999299;28;20038;-71
2022/05/29 11:12:51;;;;;;;4.72;1.73;;;15.80;60.00;;;;;;5002378;28;20053;-73
2022/05/29 11:15:22;;;;;;;4.75;1.50;;;15.60;61.00;;;;;;4990828;28;20026;-73
2022/05/29 11:18:00;;;;;;;5.18;2.28;;;14.90;61.10;;;;;;4993739;28;20522;-73
2022/05/29 11:20:47;;;;;;;3.97;1.67;;;14.40;64.60;;;;;;4991338;28;20038;-73
2022/05/29 11:23:27;;;;;;;4.57;1.70;;;14.30;64.60;;;;;;4994643;28;20115;-78
2022/05/29 11:26:14;;;;;;;6.53;2.00;;;14.10;66.00;;;;;;4994724;28;20053;-73
2022/05/29 11:29:06;;;;;;;7.13;2.03;;;14.10;66.50;;;;;;5005139;28;20550;-76
2022/05/29 11:31:53;;;;;;;6.00;2.45;;;14.10;67.40;;;;;;5003768;28;20519;-72
2022/05/29 11:34:30;;;;;;;6.30;2.17;;;14.10;67.60;;;;;;4990686;28;20820;-72
2022/05/29 11:37:06;;;;;;;6.45;2.17;;;14.30;68.90;;;;;;4991354;28;20088;-72
2022/05/29 11:39:42;;;;;;;6.53;2.40;;;14.40;69.50;;;;;;4994717;28;20490;-72
2022/05/29 11:42:20;;;;;;;6.45;1.92;;;14.30;71.90;;;;;;4989411;28;20042;-73
2022/05/29 11:44:55;;;;;;;7.97;2.45;;;14.60;70.60;;;;;;5000866;28;20041;-75
2022/05/29 11:53:39;;;;;;;5.90;2.35;;;15.00;68.80;;;;;;4999683;28;20087;-74
2022/05/29 11:56:12;;;;;;;8.80;2.55;;;15.10;68.50;;;;;;4996264;28;20042;-74
2022/05/29 11:58:55;;;;;;;7.63;2.47;;;15.40;69.70;;;;;;5009081;28;20042;-77
2022/05/29 12:01:30;;;;;;;5.70;2.78;;;15.60;68.40;;;;;;4991047;28;20041;-78
2022/05/29 12:04:16;;;;;;;6.13;2.63;;;15.60;67.00;;;;;;4996409;28;20061;-73
2022/05/29 12:06:51;;;;;;;6.15;3.08;;;15.60;68.30;;;;;;4992769;28;20049;-74
2022/05/29 12:09:46;;;;;;;7.57;2.88;;;15.50;66.70;;;;;;4997277;28;20441;-75
2022/05/29 12:12:18;;;;;;;7.22;2.50;;;15.40;67.70;;;;;;4976015;28;20062;-75
2022/05/29 12:14:58;;;;;;;5.85;2.33;;;15.30;67.60;;;;;;4995794;28;20468;-77
2022/05/29 12:17:40;;;;;;;7.60;1.92;;;15.10;64.80;;;;;;4990110;28;20061;-73
2022/05/29 12:20:34;;;;;;;8.57;2.38;;;14.80;65.60;;;;;;5000680;28;20519;-75
2022/05/29 12:23:05;;;;;;;6.82;2.83;;;14.90;64.30;;;;;;4995920;28;20415;-74
2022/05/29 12:25:39;;;;;;;6.88;2.20;;;15.00;64.50;;;;;;5004188;28;20072;-76
2022/05/29 12:28:09;;;;;;;5.47;1.63;;;15.20;64.10;;;;;;4996705;28;20070;-75
2022/05/29 12:30:45;;;;;;;3.58;1.60;;;15.30;63.10;;;;;;4993030;28;20045;-75
2022/05/29 12:33:18;;;;;;;4.55;1.48;;;15.20;61.80;;;;;;4995323;28;20034;-74
2022/05/29 12:35:57;;;;;;;4.88;1.65;;;15.20;61.50;;;;;;4995124;28;20050;-75
2022/05/29 12:39:09;;;;;;;4.40;1.40;;;15.00;60.70;;;;;;4991030;28;20045;-74
2022/05/29 12:41:40;;;;;;;3.17;1.30;;;14.80;60.40;;;;;;4997712;28;20054;-73
2022/05/29 12:44:23;;;;;;;4.47;1.48;;;15.00;61.30;;;;;;4992235;28;20156;-75
2022/05/29 12:47:19;;;;;;;5.15;1.60;;;15.70;60.60;;;;;;4990527;28;20493;-73
2022/05/29 12:50:03;;;;;;;4.32;1.15;;;15.60;56.60;;;;;;4992158;28;20512;-73
2022/05/29 12:52:54;;;;;;;3.60;1.63;;;15.80;56.30;;;;;;4998098;28;20145;-74
2022/05/29 12:55:42;;;;;;;5.70;2.08;;;16.40;55.80;;;;;;4997619;28;20044;-74
2022/05/29 12:58:39;;;;;;;7.07;2.00;;;16.90;57.80;;;;;;4995012;28;20123;-74
2022/05/29 13:01:40;;;;;;;6.00;1.75;;;16.90;57.90;;;;;;4997174;28;20096;-78
2022/05/29 13:04:49;;;;;;;5.32;1.67;;;16.20;58.60;;;;;;4994546;28;20049;-72
2022/05/29 13:07:49;;;;;;;6.82;1.90;;;15.70;58.30;;;;;;4994076;28;20058;-74
2022/05/29 13:10:25;;;;;;;5.57;1.77;;;15.70;58.40;;;;;;4993695;28;20045;-74
2022/05/29 13:13:13;;;;;;;5.32;1.48;;;15.60;57.50;;;;;;4993808;28;20136;-76
2022/05/29 13:15:40;;;;;;;4.43;1.42;;;15.90;58.60;;;;;;4994764;28;20456;-74
2022/05/29 13:18:19;;;;;;;1.13;0.93;;;16.10;53.20;;;;;;4991934;28;20046;-74
2022/05/29 13:21:06;;;;;;;3.67;1.15;;;16.10;53.90;;;;;;5012332;28;20030;-75
2022/05/29 13:23:37;;;;;;;2.67;0.88;;;16.60;51.80;;;;;;4992659;28;20042;-71
2022/05/29 13:26:02;;;;;;;3.92;1.30;;;16.60;52.00;;;;;;4993563;28;20121;-72
2022/05/29 13:28:59;;;;;;;3.20;1.23;;;16.40;52.00;;;;;;4993751;28;20129;-72
2022/05/29 13:31:27;;;;;;;3.00;1.10;;;16.50;52.20;;;;;;4994802;28;20152;-73
2022/05/29 13:34:21;;;;;;;1.73;1.00;;;16.40;52.00;;;;;;4992569;28;20034;-77
2022/05/29 13:36:53;;;;;;;2.40;0.85;;;16.30;52.60;;;;;;4992479;28;20409;-72
2022/05/29 13:40:00;;;;;;;4.13;1.08;;;16.90;53.40;;;;;;4990905;28;20061;-73
2022/05/29 13:42:29;;;;;;;2.10;0.90;;;16.90;52.00;;;;;;4974095;28;20049;-73
2022/05/29 13:44:56;;;;;;;2.42;1.08;;;17.60;51.40;;;;;;4987686;28;20030;-72
2022/05/29 13:47:22;;;;;;;2.70;1.23;;;17.40;54.30;;;;;;4994501;28;20128;-73
2022/05/29 13:50:12;;;;;;;5.40;1.42;;;17.10;54.60;;;;;;4992855;28;20034;-73
2022/05/29 13:53:02;;;;;;;5.93;1.05;;;16.70;56.10;;;;;;4992901;28;20478;-71
2022/05/29 13:56:09;;;;;;;3.78;1.20;;;16.90;56.30;;;;;;4995373;28;20037;-75
2022/05/29 14:04:23;;;;;;;5.00;1.50;;;16.80;56.20;;;;;;4987765;28;20158;-78
2022/05/29 14:07:08;;;;;;;4.38;1.40;;;16.80;56.80;;;;;;4989738;28;20034;-73